createdAt,value
2023-05-01T00:00:52.123Z,6.00
2023-05-01T00:03:23.025Z,6.00
2023-05-01T00:06:00.492Z,5.90
2023-05-01T00:08:31.859Z,5.60
2023-05-01T00:11:09.977Z,5.80
2023-05-01T00:13:41.106Z,6.40
2023-05-01T00:16:13.093Z,5.30
2023-05-01T00:18:44.007Z,5.80
2023-05-01T00:21:14.827Z,5.60
2023-05-01T00:23:45.676Z,4.90
2023-05-01T00:26:17.026Z,5.70
2023-05-01T00:28:49.952Z,5.50
2023-05-01T00:31:21.247Z,5.60
2023-05-01T00:33:52.453Z,5.40
2023-05-01T00:36:23.814Z,5.60
2023-05-01T00:38:54.659Z,5.80
2023-05-01T00:41:25.537Z,5.50
2023-05-01T00:43:56.330Z,5.00
2023-05-01T00:46:27.769Z,5.10
2023-05-01T00:48:59.979Z,5.50
2023-05-01T00:51:33.201Z,5.40
2023-05-01T00:54:06.713Z,5.30
2023-05-01T00:56:38.683Z,4.80
2023-05-01T00:59:09.863Z,5.40
2023-05-01T01:01:42.484Z,5.10
2023-05-01T01:04:13.474Z,6.00
2023-05-01T01:06:53.156Z,5.50
2023-05-01T01:09:34.492Z,5.00
2023-05-01T01:12:17.921Z,5.10
2023-05-01T01:14:56.738Z,6.10
2023-05-01T01:17:33.249Z,5.60
2023-05-01T01:20:25.991Z,5.30
2023-05-01T01:23:13.605Z,5.50
2023-05-01T01:26:01.646Z,4.90
2023-05-01T01:29:03.785Z,4.80
2023-05-01T01:31:41.555Z,5.30
2023-05-01T01:34:17.668Z,5.80
2023-05-01T01:36:57.149Z,4.60
2023-05-01T01:39:38.034Z,4.90
2023-05-01T01:42:13.313Z,5.00
2023-05-01T01:44:49.122Z,5.50
2023-05-01T01:49:53.226Z,4.50
2023-05-01T01:52:26.202Z,4.70
2023-05-01T01:54:59.680Z,4.80
2023-05-01T01:57:32.706Z,5.80
2023-05-01T02:00:08.976Z,5.50
2023-05-01T02:02:44.887Z,5.40
2023-05-01T02:05:18.264Z,5.80
2023-05-01T02:07:51.384Z,4.40
2023-05-01T02:10:24.226Z,5.60
2023-05-01T02:12:59.393Z,5.00
2023-05-01T02:15:31.510Z,5.20
2023-05-01T02:18:05.163Z,5.20
2023-05-01T02:20:38.961Z,5.80
2023-05-01T02:23:11.566Z,4.70
2023-05-01T02:25:43.833Z,4.50
2023-05-01T02:28:16.630Z,5.60
2023-05-01T02:30:47.536Z,6.20
2023-05-01T02:33:18.530Z,4.70
2023-05-01T02:35:49.674Z,5.40
2023-05-01T02:38:21.457Z,5.10
2023-05-01T02:40:56.071Z,5.00
2023-05-01T02:43:29.977Z,5.40
2023-05-01T02:46:03.043Z,5.40
2023-05-01T02:48:35.435Z,5.90
2023-05-01T02:51:08.341Z,5.30
2023-05-01T02:53:40.662Z,5.30
2023-05-01T02:56:18.881Z,5.60
2023-05-01T02:58:50.433Z,6.00
2023-05-01T03:01:21.831Z,4.90
2023-05-01T03:03:52.859Z,5.00
2023-05-01T03:06:24.185Z,6.20
2023-05-01T03:08:55.029Z,5.40
2023-05-01T03:11:25.880Z,4.90
2023-05-01T03:13:56.701Z,5.60
2023-05-01T03:16:28.343Z,4.90
2023-05-01T03:18:59.216Z,5.60
2023-05-01T03:21:29.971Z,5.50
2023-05-01T03:24:00.841Z,4.90
2023-05-01T03:26:33.407Z,5.60
2023-05-01T03:29:04.146Z,5.10
2023-05-01T03:31:35.057Z,5.20
2023-05-01T03:34:05.984Z,4.90
2023-05-01T03:36:37.613Z,6.00
2023-05-01T03:39:09.429Z,5.50
2023-05-01T03:42:03.038Z,6.60
2023-05-01T03:44:40.014Z,6.10
2023-05-01T03:47:11.487Z,5.40
2023-05-01T03:49:45.373Z,5.50
2023-05-01T03:52:16.734Z,6.00
2023-05-01T03:54:47.599Z,5.10
2023-05-01T03:57:27.051Z,5.40
2023-05-01T03:59:58.118Z,5.70
2023-05-01T04:02:29.436Z,6.40
2023-05-01T04:05:00.994Z,6.50
2023-05-01T04:07:33.201Z,5.80
2023-05-01T04:10:04.786Z,6.60
2023-05-01T04:12:35.616Z,6.50
2023-05-01T04:15:07.748Z,6.30
2023-05-01T04:17:39.761Z,6.20
2023-05-01T04:20:12.452Z,5.80
2023-05-01T04:22:43.541Z,6.10
2023-05-01T04:25:14.463Z,5.50
2023-05-01T04:27:45.591Z,5.90
2023-05-01T04:30:16.930Z,5.80
2023-05-01T04:32:47.849Z,5.70
2023-05-01T04:35:19.269Z,6.00
2023-05-01T04:37:50.211Z,5.80
2023-05-01T04:40:21.164Z,4.80
2023-05-01T04:42:51.963Z,6.20
2023-05-01T04:45:22.749Z,6.70
2023-05-01T04:47:53.988Z,5.80
2023-05-01T04:50:24.858Z,5.30
2023-05-01T04:52:55.734Z,5.70
2023-05-01T04:55:27.161Z,5.90
2023-05-01T04:58:07.014Z,4.30
2023-05-01T05:00:38.650Z,5.20
2023-05-01T05:03:10.966Z,4.80
2023-05-01T05:05:42.089Z,4.90
2023-05-01T05:08:12.967Z,4.60
2023-05-01T05:10:45.458Z,5.10
2023-05-01T05:13:48.641Z,4.60
2023-05-01T05:16:19.794Z,5.10
2023-05-01T05:18:50.692Z,4.90
2023-05-01T05:21:22.128Z,4.20
2023-05-01T05:23:56.169Z,3.80
2023-05-01T05:26:29.637Z,4.10
2023-05-01T05:29:02.387Z,3.90
2023-05-01T05:31:33.447Z,3.80
2023-05-01T05:34:04.263Z,3.80
2023-05-01T05:36:35.639Z,3.70
2023-05-01T05:39:06.685Z,4.00
2023-05-01T05:41:37.961Z,3.90
2023-05-01T05:44:08.764Z,4.10
2023-05-01T05:46:39.891Z,3.80
2023-05-01T05:49:10.941Z,3.60
2023-05-01T05:51:41.943Z,3.50
2023-05-01T05:54:13.498Z,4.00
2023-05-01T05:56:45.965Z,4.00
2023-05-01T05:59:17.602Z,3.10
2023-05-01T06:02:12.589Z,3.30
2023-05-01T06:04:43.564Z,3.30
2023-05-01T06:07:14.604Z,3.40
2023-05-01T06:09:45.458Z,3.20
2023-05-01T06:12:16.724Z,3.40
2023-05-01T06:14:48.703Z,3.30
2023-05-01T06:17:19.578Z,3.70
2023-05-01T06:19:52.542Z,2.90
2023-05-01T06:22:23.569Z,2.90
2023-05-01T06:25:12.749Z,2.60
2023-05-01T06:27:43.764Z,3.30
2023-05-01T06:30:15.276Z,2.60
2023-05-01T06:32:46.978Z,2.70
2023-05-01T06:35:18.380Z,2.50
2023-05-01T06:37:59.304Z,2.70
2023-05-01T06:40:31.817Z,2.80
2023-05-01T06:43:02.608Z,2.80
2023-05-01T06:45:33.307Z,3.10
2023-05-01T06:48:04.137Z,3.30
2023-05-01T06:50:34.911Z,2.70
2023-05-01T06:53:06.025Z,2.30
2023-05-01T06:55:36.748Z,3.10
2023-05-01T06:58:22.509Z,3.20
2023-05-01T07:00:55.572Z,2.80
2023-05-01T07:03:28.193Z,2.60
2023-05-01T07:06:01.351Z,2.80
2023-05-01T07:08:32.608Z,3.20
2023-05-01T07:11:03.651Z,6.30
2023-05-01T07:13:34.545Z,3.00
2023-05-01T07:16:05.571Z,3.20
2023-05-01T07:18:39.646Z,3.10
2023-05-01T07:21:12.068Z,3.20
2023-05-01T07:23:42.820Z,2.70
2023-05-01T07:26:13.565Z,3.50
2023-05-01T07:28:44.290Z,3.50
2023-05-01T07:31:15.577Z,2.30
2023-05-01T07:33:47.647Z,2.70
2023-05-01T07:36:20.656Z,3.30
2023-05-01T07:38:51.616Z,3.60
2023-05-01T07:41:22.980Z,3.10
2023-05-01T07:43:53.735Z,3.30
2023-05-01T07:46:24.610Z,2.80
2023-05-01T07:48:55.408Z,3.10
2023-05-01T07:51:26.165Z,3.20
2023-05-01T07:53:56.806Z,3.40
2023-05-01T07:56:27.611Z,2.90
2023-05-01T07:58:58.309Z,2.80
2023-05-01T08:01:29.180Z,2.80
2023-05-01T08:04:00.041Z,2.70
2023-05-01T08:06:31.881Z,2.90
2023-05-01T08:09:02.904Z,2.90
2023-05-01T08:11:33.912Z,2.80
2023-05-01T08:14:05.426Z,3.20
2023-05-01T08:26:06.423Z,3.60
2023-05-01T08:29:01.148Z,3.50
2023-05-01T08:31:32.042Z,3.30
2023-05-01T08:34:28.056Z,3.20
2023-05-01T08:37:01.782Z,3.00
2023-05-01T08:39:32.758Z,2.90
2023-05-01T08:42:15.204Z,2.90
2023-05-01T08:45:06.108Z,3.40
2023-05-01T08:47:52.951Z,3.00
2023-05-01T08:50:48.643Z,2.90
2023-05-01T08:56:07.083Z,3.80
2023-05-01T08:58:38.852Z,3.10
2023-05-01T09:01:10.806Z,3.00
2023-05-01T09:03:44.633Z,2.70
2023-05-01T09:07:07.995Z,3.00
2023-05-01T09:53:11.736Z,2.80
2023-05-01T09:55:43.368Z,2.70
2023-05-01T09:58:33.119Z,2.30
2023-05-01T10:01:23.296Z,2.70
2023-05-01T10:13:18.685Z,2.80
2023-05-01T10:15:50.408Z,2.70
2023-05-01T10:18:21.985Z,2.80
2023-05-01T10:21:42.703Z,2.80
2023-05-01T10:29:27.311Z,2.70
2023-05-01T10:48:15.947Z,3.10
2023-05-01T10:51:17.268Z,3.00
2023-05-01T10:57:49.325Z,3.10
2023-05-01T11:00:22.188Z,2.90
2023-05-01T11:11:54.114Z,2.10
2023-05-01T11:14:25.120Z,3.20
2023-05-01T11:16:56.128Z,2.80
2023-05-01T11:24:15.334Z,4.10
2023-05-01T11:37:59.841Z,3.00
2023-05-01T11:40:39.135Z,2.60
2023-05-01T11:43:12.794Z,2.50
2023-05-01T11:46:37.041Z,3.00
2023-05-01T11:49:30.731Z,2.50
2023-05-01T11:52:04.403Z,2.60
2023-05-01T11:55:30.868Z,2.70
2023-05-01T11:58:08.773Z,2.30
2023-05-01T12:00:41.950Z,2.00
2023-05-01T12:03:44.945Z,2.60
2023-05-01T12:06:48.401Z,7.60
2023-05-01T12:09:24.445Z,2.50
2023-05-01T12:12:11.654Z,2.30
2023-05-01T12:14:43.590Z,2.40
2023-05-01T12:17:21.960Z,2.70
2023-05-01T12:19:53.259Z,2.70
2023-05-01T12:22:24.466Z,2.30
2023-05-01T12:24:56.068Z,2.80
2023-05-01T12:27:27.160Z,2.60
2023-05-01T12:29:58.030Z,2.40
2023-05-01T12:32:34.695Z,2.40
2023-05-01T12:35:15.517Z,2.90
2023-05-01T12:37:48.726Z,2.80
2023-05-01T12:40:20.062Z,2.40
2023-05-01T12:42:58.195Z,2.00
2023-05-01T12:45:29.323Z,2.30
2023-05-01T12:48:00.185Z,3.00
2023-05-01T12:50:37.268Z,2.30
2023-05-01T12:53:09.868Z,2.60
2023-05-01T12:55:47.859Z,2.30
2023-05-01T12:58:24.968Z,2.50
2023-05-01T13:00:56.715Z,2.90
2023-05-01T13:03:44.482Z,2.60
2023-05-01T13:06:15.570Z,2.30
2023-05-01T13:08:55.697Z,2.80
2023-05-01T13:11:34.629Z,2.50
2023-05-01T13:14:10.598Z,2.10
2023-05-01T13:16:55.242Z,2.10
2023-05-01T13:19:31.671Z,2.30
2023-05-01T13:22:02.745Z,2.30
2023-05-01T13:24:41.343Z,2.70
2023-05-01T13:27:22.455Z,2.40
2023-05-01T13:29:58.007Z,2.30
2023-05-01T13:32:29.361Z,2.90
2023-05-01T13:35:04.804Z,5.80
2023-05-01T13:41:20.922Z,2.10
2023-05-01T13:43:53.451Z,2.20
2023-05-01T13:46:27.120Z,2.60
2023-05-01T13:48:58.895Z,2.50
2023-05-01T13:51:29.647Z,2.30
2023-05-01T13:54:11.286Z,2.60
2023-05-01T13:56:43.204Z,3.00
2023-05-01T13:59:13.893Z,2.50
2023-05-01T14:01:49.192Z,2.70
2023-05-01T14:04:21.817Z,2.50
2023-05-01T14:06:55.676Z,2.60
2023-05-01T14:09:26.869Z,2.30
2023-05-01T14:12:01.033Z,2.30
2023-05-01T14:14:34.972Z,2.50
2023-05-01T14:17:06.033Z,2.00
2023-05-01T14:19:37.576Z,2.10
2023-05-01T14:22:09.866Z,2.40
2023-05-01T14:24:54.200Z,2.50
2023-05-01T14:27:25.113Z,1.90
2023-05-01T14:29:57.613Z,2.10
2023-05-01T14:32:30.101Z,2.70
2023-05-01T14:35:10.994Z,2.20
2023-05-01T14:38:52.829Z,2.40
2023-05-01T14:41:24.049Z,2.00
2023-05-01T14:43:54.955Z,2.60
2023-05-01T14:46:49.782Z,2.10
2023-05-01T14:49:26.276Z,2.60
2023-05-01T14:51:57.210Z,2.20
2023-05-01T14:54:28.196Z,2.60
2023-05-01T14:57:01.439Z,2.10
2023-05-01T15:00:02.726Z,2.40
2023-05-01T15:02:33.762Z,2.20
2023-05-01T15:05:04.807Z,2.50
2023-05-01T15:07:35.606Z,2.60
2023-05-01T15:10:07.106Z,2.40
2023-05-01T15:12:44.048Z,2.10
2023-05-01T15:15:15.032Z,2.20
2023-05-01T15:17:45.826Z,2.20
2023-05-01T15:20:16.665Z,2.50
2023-05-01T15:22:47.400Z,2.30
2023-05-01T15:25:27.211Z,2.00
2023-05-01T15:27:58.057Z,2.20
2023-05-01T15:30:28.871Z,2.80
2023-05-01T15:32:59.986Z,2.40
2023-05-01T15:35:31.308Z,2.30
2023-05-01T15:38:04.034Z,2.20
2023-05-01T15:40:35.110Z,2.40
2023-05-01T15:43:07.746Z,2.20
2023-05-01T15:45:43.393Z,3.00
2023-05-01T15:48:14.710Z,2.40
2023-05-01T15:51:33.777Z,2.40
2023-05-01T15:54:05.852Z,2.70
2023-05-01T15:56:38.924Z,2.50
2023-05-01T15:59:10.353Z,3.50
2023-05-01T16:01:47.438Z,5.00
2023-05-01T16:04:19.415Z,2.50
2023-05-01T16:07:15.343Z,2.50
2023-05-01T16:09:46.780Z,2.10
2023-05-01T16:12:18.168Z,2.30
2023-05-01T16:14:50.900Z,2.30
2023-05-01T16:17:26.287Z,2.40
2023-05-01T16:19:57.294Z,3.40
2023-05-01T16:22:29.182Z,2.50
2023-05-01T16:25:01.991Z,2.50
2023-05-01T16:27:32.882Z,2.70
2023-05-01T16:30:09.095Z,2.30
2023-05-01T16:32:41.134Z,2.20
2023-05-01T16:35:18.932Z,2.70
2023-05-01T16:37:49.944Z,2.70
2023-05-01T16:40:25.957Z,3.30
2023-05-01T16:43:02.195Z,2.50
2023-05-01T16:45:33.897Z,2.30
2023-05-01T16:48:05.047Z,2.80
2023-05-01T16:50:38.091Z,3.70
2023-05-01T16:53:13.302Z,2.30
2023-05-01T16:55:47.063Z,3.20
2023-05-01T16:58:50.573Z,2.60
2023-05-01T17:01:21.396Z,2.70
2023-05-01T17:03:52.636Z,3.00
2023-05-01T17:06:23.562Z,2.50
2023-05-01T17:08:55.051Z,2.50
2023-05-01T17:11:49.248Z,2.80
2023-05-01T17:14:36.557Z,2.60
2023-05-01T17:17:09.589Z,3.30
2023-05-01T17:19:41.286Z,3.50
2023-05-01T17:22:15.214Z,3.90
2023-05-01T17:24:46.096Z,2.50
2023-05-01T17:27:23.083Z,2.80
2023-05-01T17:29:55.601Z,3.40
2023-05-01T17:32:45.277Z,3.10
2023-05-01T17:35:18.244Z,3.10
2023-05-01T17:37:49.579Z,3.00
2023-05-01T17:40:23.220Z,3.10
2023-05-01T17:42:54.056Z,3.10
2023-05-01T17:45:28.088Z,3.00
2023-05-01T17:48:02.542Z,3.40
2023-05-01T17:50:33.504Z,2.70
2023-05-01T17:53:06.806Z,3.40
2023-05-01T17:55:51.197Z,2.80
2023-05-01T17:58:45.320Z,2.70
2023-05-01T18:01:21.306Z,2.90
2023-05-01T18:03:52.240Z,3.10
2023-05-01T18:06:40.638Z,5.00
2023-05-01T18:09:36.745Z,3.50
2023-05-01T18:12:13.127Z,3.00
2023-05-01T18:14:46.408Z,2.80
2023-05-01T18:17:17.217Z,3.00
2023-05-01T18:19:48.186Z,2.80
2023-05-01T18:22:19.023Z,2.70
2023-05-01T18:24:49.888Z,3.20
2023-05-01T18:27:20.736Z,3.30
2023-05-01T18:29:54.493Z,3.50
2023-05-01T18:32:43.235Z,3.40
2023-05-01T18:35:17.747Z,3.40
2023-05-01T18:37:48.638Z,3.00
2023-05-01T18:40:19.922Z,3.70
2023-05-01T18:42:50.647Z,2.90
2023-05-01T18:45:21.657Z,3.00
2023-05-01T18:47:53.433Z,3.00
2023-05-01T18:50:26.891Z,3.40
2023-05-01T18:52:58.178Z,3.10
2023-05-01T18:55:29.701Z,3.50
2023-05-01T18:58:02.082Z,3.30
2023-05-01T19:00:33.189Z,3.10
2023-05-01T19:03:05.534Z,3.90
2023-05-01T19:05:36.606Z,3.50
2023-05-01T19:08:09.564Z,2.80
2023-05-01T19:10:42.218Z,2.90
2023-05-01T19:13:13.207Z,2.90
2023-05-01T19:15:44.455Z,3.80
2023-05-01T19:18:18.268Z,3.50
2023-05-01T19:20:49.171Z,3.70
2023-05-01T19:23:27.530Z,3.80
2023-05-01T19:26:00.788Z,3.30
2023-05-01T19:28:31.553Z,3.70
2023-05-01T19:31:02.725Z,3.70
2023-05-01T19:33:34.130Z,4.10
2023-05-01T19:36:05.611Z,3.80
2023-05-01T19:38:52.740Z,3.90
2023-05-01T19:41:27.723Z,4.10
2023-05-01T19:43:59.954Z,6.00
2023-05-01T19:46:30.974Z,4.40
2023-05-01T19:49:02.063Z,4.10
2023-05-01T19:51:32.962Z,4.50
2023-05-01T19:54:28.980Z,4.70
2023-05-01T19:59:31.034Z,3.70
2023-05-01T20:02:01.819Z,3.90
2023-05-01T20:04:32.732Z,4.30
2023-05-01T20:07:04.784Z,4.00
2023-05-01T20:09:35.558Z,4.20
2023-05-01T20:12:06.642Z,4.20
2023-05-01T20:14:37.411Z,4.20
2023-05-01T20:17:09.418Z,4.40
2023-05-01T20:19:40.230Z,4.00
2023-05-01T20:22:11.325Z,4.80
2023-05-01T20:24:42.006Z,4.70
2023-05-01T20:27:13.051Z,4.70
2023-05-01T20:29:44.135Z,4.00
2023-05-01T20:32:14.812Z,5.20
2023-05-01T20:34:45.530Z,4.70
2023-05-01T20:37:16.636Z,5.70
2023-05-01T20:39:47.367Z,4.80
2023-05-01T20:42:18.071Z,4.90
2023-05-01T20:44:48.822Z,4.50
2023-05-01T20:47:19.441Z,4.70
2023-05-01T20:49:50.199Z,4.50
2023-05-01T20:52:21.424Z,4.60
2023-05-01T20:54:52.354Z,8.10
2023-05-01T20:57:23.097Z,5.90
2023-05-01T20:59:53.884Z,5.30
2023-05-01T21:02:24.635Z,5.70
2023-05-01T21:04:55.474Z,4.90
2023-05-01T21:07:26.594Z,5.40
2023-05-01T21:09:57.569Z,5.10
2023-05-01T21:12:29.414Z,6.10
2023-05-01T21:15:01.199Z,4.40
2023-05-01T21:17:33.218Z,3.90
2023-05-01T21:20:05.751Z,4.90
2023-05-01T21:22:37.063Z,4.70
2023-05-01T21:25:09.891Z,4.60
2023-05-01T21:27:43.160Z,4.80
2023-05-01T21:30:19.836Z,4.50
2023-05-01T21:32:51.800Z,4.50
2023-05-01T21:35:22.708Z,5.10
2023-05-01T21:37:54.097Z,4.80
2023-05-01T21:40:25.279Z,5.20
2023-05-01T21:42:57.271Z,4.90
2023-05-01T21:45:29.082Z,4.60
2023-05-01T21:47:59.930Z,4.60
2023-05-01T21:50:36.146Z,5.40
2023-05-01T21:53:10.155Z,5.20
2023-05-01T21:55:41.508Z,5.60
2023-05-01T21:58:12.315Z,5.00
2023-05-01T22:00:43.181Z,5.00
2023-05-01T22:03:17.396Z,4.90
2023-05-01T22:05:48.170Z,4.30
2023-05-01T22:08:19.036Z,4.90
2023-05-01T22:10:49.759Z,4.80
2023-05-01T22:13:20.524Z,5.00
2023-05-01T22:15:51.667Z,4.80
2023-05-01T22:18:22.845Z,4.20
2023-05-01T22:20:53.733Z,4.80
2023-05-01T22:32:34.225Z,4.90
2023-05-01T22:35:05.321Z,5.10
2023-05-01T22:37:36.055Z,5.70
2023-05-01T22:40:08.624Z,5.00
2023-05-01T22:42:39.445Z,4.70
2023-05-01T22:45:11.513Z,4.80
2023-05-01T22:47:42.739Z,5.30
2023-05-01T22:50:14.055Z,5.20
2023-05-01T22:52:46.482Z,5.20
2023-05-01T22:55:17.740Z,5.20
2023-05-01T22:57:51.031Z,4.60
2023-05-01T23:00:22.338Z,4.80
2023-05-01T23:02:53.690Z,5.70
2023-05-01T23:05:24.515Z,5.20
2023-05-01T23:07:55.260Z,5.70
2023-05-01T23:10:31.125Z,4.70
2023-05-01T23:13:03.141Z,5.70
2023-05-01T23:15:33.948Z,5.40
2023-05-01T23:18:04.855Z,5.70
2023-05-01T23:20:40.050Z,5.40
2023-05-01T23:25:49.067Z,4.50
2023-05-01T23:28:24.803Z,4.90
2023-05-01T23:30:59.000Z,6.20
2023-05-01T23:33:34.833Z,6.40
2023-05-01T23:36:10.318Z,5.30
2023-05-01T23:38:41.520Z,5.60
2023-05-01T23:41:13.048Z,5.90
2023-05-01T23:43:46.421Z,5.50
2023-05-01T23:46:17.996Z,5.80
2023-05-01T23:48:48.882Z,5.50
2023-05-01T23:51:19.668Z,5.20
2023-05-01T23:53:50.374Z,6.80
2023-05-01T23:56:21.144Z,6.20
2023-05-01T23:58:51.983Z,5.50
